VKG1399 LGRP-EFOU
Flight info
| Callsign | VKG1399 |
|---|---|
| Flight time | 4h 47m |
| Altitude | 34000 |
| Route | PIROX UN129 DUGLA UG80 BIG/N0445F350 UN604 BKZ/N0446F340 UN604 MAKOL DCT REVDA DCT BUKOV/K0846F360 DCT SOMAT Z364 SOGBI/N0455F360 DCT LUNIT M983 DOLAT DCT DOBAN DCT SUVIB |
| Aircraft | A321/M-SDE3FGHIRWY/LB1 |
Departure
| Time | 2026-04-30 07:30 |
|---|---|
| Airport | Rhodes International Airport "Diagoras" (LGRP) |
Arrival
| Time | 2026-04-30 12:17 |
|---|---|
| Airport | Oulu Airport (EFOU) |
| Time | Latitude | Longitude | Altitude | Speed | Heading |
|---|---|---|---|---|---|
| 2026-04-30 06:55 | 36.40359 | 28.09086 | 29 ft | 0 kts | 160° |
| 2026-04-30 07:22 | 36.40398 | 28.09059 | 29 ft | 4 kts | 129° |
| 2026-04-30 07:22 | 36.40408 | 28.09033 | 29 ft | 4 kts | 79° |
| 2026-04-30 07:22 | 36.40407 | 28.09025 | 29 ft | 0 kts | 70° |
| 2026-04-30 07:25 | 36.40419 | 28.09069 | 29 ft | 13 kts | 70° |
| 2026-04-30 07:25 | 36.40457 | 28.09119 | 29 ft | 6 kts | 340° |
| 2026-04-30 07:25 | 36.40529 | 28.09081 | 28 ft | 16 kts | 4° |
| 2026-04-30 07:25 | 36.40626 | 28.09134 | 31 ft | 14 kts | 30° |
| 2026-04-30 07:26 | 36.40687 | 28.09213 | 31 ft | 14 kts | 54° |
| 2026-04-30 07:26 | 36.40751 | 28.09367 | 30 ft | 26 kts | 66° |
| 2026-04-30 07:26 | 36.40824 | 28.09608 | 26 ft | 32 kts | 70° |
| 2026-04-30 07:26 | 36.40901 | 28.09871 | 24 ft | 31 kts | 70° |
| 2026-04-30 07:27 | 36.40957 | 28.10075 | 23 ft | 19 kts | 72° |
| 2026-04-30 07:27 | 36.40993 | 28.10216 | 23 ft | 16 kts | 72° |
| 2026-04-30 07:27 | 36.41019 | 28.10290 | 26 ft | 4 kts | 308° |
| 2026-04-30 07:27 | 36.41016 | 28.10263 | 25 ft | 4 kts | 258° |
| 2026-04-30 07:28 | 36.41004 | 28.10217 | 24 ft | 0 kts | 249° |
| 2026-04-30 07:29 | 36.41003 | 28.10213 | 24 ft | 5 kts | 249° |
| 2026-04-30 07:29 | 36.40903 | 28.09876 | 22 ft | 77 kts | 250° |
| 2026-04-30 07:29 | 36.40650 | 28.09004 | 28 ft | 135 kts | 250° |
| 2026-04-30 07:29 | 36.40281 | 28.07719 | 28 ft | 179 kts | 252° |
| 2026-04-30 07:30 | 36.39441 | 28.04873 | 1279 ft | 173 kts | 250° |
| 2026-04-30 07:30 | 36.39033 | 28.03458 | 1809 ft | 179 kts | 251° |
| 2026-04-30 07:30 | 36.38595 | 28.01922 | 1958 ft | 199 kts | 251° |
| 2026-04-30 07:31 | 36.38115 | 28.00229 | 2098 ft | 217 kts | 251° |
| 2026-04-30 07:31 | 36.37592 | 27.98379 | 2220 ft | 239 kts | 251° |
| 2026-04-30 07:31 | 36.37015 | 27.96338 | 2490 ft | 259 kts | 251° |
| 2026-04-30 07:31 | 36.36410 | 27.94207 | 3130 ft | 264 kts | 251° |
| 2026-04-30 07:32 | 36.35791 | 27.92040 | 3826 ft | 267 kts | 251° |
| 2026-04-30 07:32 | 36.35164 | 27.89854 | 4523 ft | 271 kts | 251° |
| 2026-04-30 07:32 | 36.34528 | 27.87645 | 5213 ft | 274 kts | 251° |
| 2026-04-30 07:32 | 36.33881 | 27.85413 | 5908 ft | 276 kts | 251° |
| 2026-04-30 07:33 | 36.33063 | 27.83247 | 6561 ft | 281 kts | 233° |
| 2026-04-30 07:33 | 36.31571 | 27.81700 | 7165 ft | 284 kts | 207° |
| 2026-04-30 07:33 | 36.29802 | 27.80647 | 7820 ft | 287 kts | 206° |
| 2026-04-30 07:33 | 36.28005 | 27.79553 | 8455 ft | 289 kts | 207° |
| 2026-04-30 07:34 | 36.26195 | 27.78435 | 9128 ft | 291 kts | 207° |
| 2026-04-30 07:34 | 36.24377 | 27.77307 | 9782 ft | 294 kts | 207° |
| 2026-04-30 07:34 | 36.22526 | 27.76156 | 10238 ft | 304 kts | 207° |
| 2026-04-30 07:34 | 36.20575 | 27.74939 | 10359 ft | 324 kts | 207° |
| 2026-04-30 07:35 | 36.18482 | 27.73668 | 10483 ft | 344 kts | 203° |
| 2026-04-30 07:35 | 36.16112 | 27.72958 | 10786 ft | 357 kts | 184° |
| 2026-04-30 07:35 | 36.13630 | 27.73213 | 11298 ft | 363 kts | 166° |
| 2026-04-30 07:35 | 36.11307 | 27.74444 | 11854 ft | 367 kts | 147° |
| 2026-04-30 07:36 | 36.09413 | 27.76562 | 12417 ft | 370 kts | 127° |
| 2026-04-30 07:36 | 36.08165 | 27.79347 | 12969 ft | 373 kts | 108° |
| 2026-04-30 07:36 | 36.07632 | 27.82488 | 13515 ft | 376 kts | 97° |
| 2026-04-30 07:36 | 36.07262 | 27.85696 | 14056 ft | 379 kts | 97° |
| 2026-04-30 07:37 | 36.06890 | 27.88933 | 14561 ft | 382 kts | 97° |
| 2026-04-30 07:37 | 36.06513 | 27.92195 | 15077 ft | 385 kts | 97° |
| 2026-04-30 07:37 | 36.06131 | 27.95480 | 15584 ft | 387 kts | 97° |
| 2026-04-30 07:37 | 36.05994 | 27.98802 | 16069 ft | 389 kts | 84° |
| 2026-04-30 07:38 | 36.06534 | 28.02074 | 16543 ft | 390 kts | 69° |
| 2026-04-30 07:38 | 36.07732 | 28.05069 | 17003 ft | 390 kts | 54° |
| 2026-04-30 07:38 | 36.09509 | 28.07597 | 17473 ft | 391 kts | 39° |
| 2026-04-30 07:38 | 36.11719 | 28.09485 | 17925 ft | 392 kts | 27° |
| 2026-04-30 07:39 | 36.14128 | 28.11091 | 18366 ft | 395 kts | 27° |
| 2026-04-30 07:39 | 36.16551 | 28.12705 | 18772 ft | 397 kts | 27° |
| 2026-04-30 07:39 | 36.18990 | 28.14332 | 19172 ft | 399 kts | 27° |
| 2026-04-30 07:39 | 36.21443 | 28.15952 | 19573 ft | 401 kts | 24° |
| 2026-04-30 07:40 | 36.24057 | 28.17123 | 19958 ft | 400 kts | 11° |
| 2026-04-30 07:40 | 36.26817 | 28.17569 | 20345 ft | 400 kts | 359° |
| 2026-04-30 07:40 | 36.29584 | 28.17278 | 20735 ft | 400 kts | 347° |
| 2026-04-30 07:40 | 36.32258 | 28.16245 | 21141 ft | 400 kts | 334° |
| 2026-04-30 07:41 | 36.34689 | 28.14630 | 21523 ft | 401 kts | 329° |
| 2026-04-30 07:41 | 36.37123 | 28.12903 | 21920 ft | 403 kts | 329° |
| 2026-04-30 07:41 | 36.39573 | 28.11171 | 22310 ft | 405 kts | 329° |
| 2026-04-30 07:41 | 36.42027 | 28.09440 | 22697 ft | 407 kts | 329° |
| 2026-04-30 07:42 | 36.44463 | 28.07724 | 23078 ft | 409 kts | 329° |
| 2026-04-30 07:42 | 36.46994 | 28.05988 | 23457 ft | 412 kts | 333° |
| 2026-04-30 07:42 | 36.49671 | 28.04697 | 23784 ft | 415 kts | 342° |
| 2026-04-30 07:42 | 36.52468 | 28.03906 | 24091 ft | 418 kts | 347° |
| 2026-04-30 07:43 | 36.55336 | 28.03162 | 24402 ft | 420 kts | 346° |
| 2026-04-30 07:43 | 36.58217 | 28.02406 | 24712 ft | 422 kts | 346° |
| 2026-04-30 07:43 | 36.61073 | 28.01650 | 25014 ft | 424 kts | 346° |
| 2026-04-30 07:43 | 36.63966 | 28.00884 | 25306 ft | 426 kts | 346° |
| 2026-04-30 07:44 | 36.66871 | 28.00119 | 25597 ft | 427 kts | 346° |
| 2026-04-30 07:44 | 36.69794 | 27.99350 | 25884 ft | 429 kts | 346° |
| 2026-04-30 07:44 | 36.72723 | 27.98579 | 26186 ft | 431 kts | 346° |
| 2026-04-30 07:44 | 36.75662 | 27.97803 | 26472 ft | 433 kts | 346° |
| 2026-04-30 07:45 | 36.78613 | 27.97021 | 26761 ft | 434 kts | 346° |
| 2026-04-30 07:45 | 36.81578 | 27.96235 | 27043 ft | 436 kts | 346° |
| 2026-04-30 07:45 | 36.84552 | 27.95446 | 27318 ft | 438 kts | 346° |
| 2026-04-30 07:45 | 36.87543 | 27.94652 | 27586 ft | 440 kts | 346° |
| 2026-04-30 07:46 | 36.90541 | 27.93857 | 27846 ft | 441 kts | 346° |
| 2026-04-30 07:46 | 36.93551 | 27.93057 | 28101 ft | 443 kts | 346° |
| 2026-04-30 07:46 | 36.96570 | 27.92251 | 28346 ft | 445 kts | 346° |
| 2026-04-30 07:46 | 36.99568 | 27.91450 | 28599 ft | 446 kts | 346° |
| 2026-04-30 07:47 | 37.02616 | 27.90634 | 28854 ft | 448 kts | 346° |
| 2026-04-30 07:47 | 37.05671 | 27.89819 | 29097 ft | 450 kts | 346° |
| 2026-04-30 07:47 | 37.08741 | 27.89003 | 29337 ft | 451 kts | 346° |
| 2026-04-30 07:47 | 37.11814 | 27.88186 | 29601 ft | 452 kts | 346° |
| 2026-04-30 07:48 | 37.14888 | 27.87367 | 29963 ft | 451 kts | 345° |
| 2026-04-30 07:48 | 37.17963 | 27.86547 | 30284 ft | 450 kts | 345° |
| 2026-04-30 07:48 | 37.21023 | 27.85729 | 30582 ft | 449 kts | 345° |
| 2026-04-30 07:48 | 37.24082 | 27.84909 | 30893 ft | 448 kts | 345° |
| 2026-04-30 07:49 | 37.27127 | 27.84091 | 31205 ft | 447 kts | 345° |
| 2026-04-30 07:49 | 37.30171 | 27.83273 | 31526 ft | 446 kts | 345° |
| 2026-04-30 07:49 | 37.33205 | 27.82459 | 31841 ft | 445 kts | 345° |
| 2026-04-30 07:49 | 37.36235 | 27.81645 | 32149 ft | 444 kts | 345° |
| 2026-04-30 07:50 | 37.39251 | 27.80831 | 32448 ft | 443 kts | 345° |
| 2026-04-30 07:50 | 37.42228 | 27.80026 | 32737 ft | 442 kts | 345° |
| 2026-04-30 07:50 | 37.45230 | 27.79215 | 33029 ft | 441 kts | 345° |
| 2026-04-30 07:50 | 37.48233 | 27.78407 | 33316 ft | 440 kts | 345° |
| 2026-04-30 07:51 | 37.51231 | 27.77604 | 33585 ft | 440 kts | 345° |
| 2026-04-30 07:51 | 37.54222 | 27.76801 | 33877 ft | 439 kts | 345° |
| 2026-04-30 07:51 | 37.57207 | 27.75996 | 34039 ft | 438 kts | 345° |
| 2026-04-30 07:52 | 37.63124 | 27.74395 | 34059 ft | 433 kts | 345° |
| 2026-04-30 07:52 | 37.69015 | 27.72793 | 34058 ft | 432 kts | 345° |
| 2026-04-30 07:53 | 37.74863 | 27.71201 | 34060 ft | 433 kts | 345° |
| 2026-04-30 07:53 | 37.80750 | 27.69601 | 34058 ft | 433 kts | 345° |
| 2026-04-30 07:54 | 37.86639 | 27.68004 | 34055 ft | 433 kts | 345° |
| 2026-04-30 07:54 | 37.92525 | 27.66396 | 34056 ft | 433 kts | 345° |
| 2026-04-30 07:55 | 37.98416 | 27.64780 | 34064 ft | 433 kts | 344° |
| 2026-04-30 07:55 | 38.04311 | 27.63165 | 34061 ft | 433 kts | 344° |
| 2026-04-30 07:56 | 38.10199 | 27.61553 | 34057 ft | 433 kts | 344° |
| 2026-04-30 07:56 | 38.16053 | 27.59949 | 34066 ft | 433 kts | 344° |
| 2026-04-30 07:57 | 38.21958 | 27.58323 | 34058 ft | 433 kts | 344° |
| 2026-04-30 07:57 | 38.27860 | 27.56695 | 34055 ft | 434 kts | 344° |
| 2026-04-30 07:58 | 38.33762 | 27.55065 | 34057 ft | 434 kts | 344° |
| 2026-04-30 07:58 | 38.39666 | 27.53430 | 34074 ft | 434 kts | 344° |
| 2026-04-30 07:59 | 38.45576 | 27.51794 | 34050 ft | 434 kts | 344° |
| 2026-04-30 07:59 | 38.51442 | 27.50170 | 34054 ft | 434 kts | 344° |
| 2026-04-30 08:00 | 38.60319 | 27.47706 | 34059 ft | 435 kts | 344° |
| 2026-04-30 08:00 | 38.66230 | 27.46057 | 34083 ft | 435 kts | 343° |
| 2026-04-30 08:01 | 38.72143 | 27.44401 | 34073 ft | 435 kts | 343° |
| 2026-04-30 08:01 | 38.78016 | 27.42756 | 34069 ft | 434 kts | 343° |
| 2026-04-30 08:02 | 38.86880 | 27.40285 | 34091 ft | 434 kts | 343° |
| 2026-04-30 08:03 | 38.98688 | 27.36964 | 34076 ft | 434 kts | 343° |
| 2026-04-30 08:04 | 39.04593 | 27.35300 | 34076 ft | 434 kts | 343° |
| 2026-04-30 08:04 | 39.10461 | 27.33641 | 34090 ft | 434 kts | 343° |
| 2026-04-30 08:05 | 39.16369 | 27.31971 | 34088 ft | 433 kts | 343° |
| 2026-04-30 08:05 | 39.22258 | 27.30304 | 34089 ft | 433 kts | 343° |
| 2026-04-30 08:06 | 39.28150 | 27.28635 | 34097 ft | 433 kts | 343° |
| 2026-04-30 08:06 | 39.34036 | 27.26968 | 34090 ft | 433 kts | 343° |
| 2026-04-30 08:07 | 39.39914 | 27.25296 | 34087 ft | 432 kts | 343° |
| 2026-04-30 08:07 | 39.45760 | 27.23632 | 34086 ft | 432 kts | 343° |
| 2026-04-30 08:08 | 39.51766 | 27.22807 | 34082 ft | 441 kts | 359° |
| 2026-04-30 08:08 | 39.57894 | 27.23782 | 34079 ft | 443 kts | 3° |
| 2026-04-30 08:09 | 39.64024 | 27.24827 | 34079 ft | 444 kts | 3° |
| 2026-04-30 08:09 | 39.70118 | 27.25849 | 34099 ft | 444 kts | 2° |
| 2026-04-30 08:10 | 39.76247 | 27.26879 | 34093 ft | 444 kts | 2° |
| 2026-04-30 08:10 | 39.81341 | 27.27737 | 34096 ft | 444 kts | 2° |
| 2026-04-30 08:11 | 39.87468 | 27.28836 | 34095 ft | 444 kts | 3° |
| 2026-04-30 08:11 | 39.93586 | 27.30003 | 34102 ft | 445 kts | 3° |
| 2026-04-30 08:12 | 39.99716 | 27.31168 | 34109 ft | 445 kts | 3° |
| 2026-04-30 08:12 | 40.05841 | 27.32313 | 34103 ft | 445 kts | 3° |
| 2026-04-30 08:13 | 40.11962 | 27.33457 | 34249 ft | 449 kts | 3° |
| 2026-04-30 08:13 | 40.15057 | 27.34033 | 34448 ft | 449 kts | 3° |
| 2026-04-30 08:13 | 40.18153 | 27.34611 | 34679 ft | 449 kts | 3° |
| 2026-04-30 08:13 | 40.21244 | 27.35217 | 34909 ft | 451 kts | 6° |
| 2026-04-30 08:14 | 40.24279 | 27.36358 | 35093 ft | 458 kts | 17° |
| 2026-04-30 08:14 | 40.27153 | 27.38220 | 35141 ft | 465 kts | 28° |
| 2026-04-30 08:14 | 40.29752 | 27.40768 | 35137 ft | 471 kts | 39° |
| 2026-04-30 08:14 | 40.31979 | 27.43942 | 35139 ft | 476 kts | 50° |
| 2026-04-30 08:15 | 40.33822 | 27.47569 | 35131 ft | 479 kts | 54° |
| 2026-04-30 08:15 | 40.37401 | 27.54953 | 35142 ft | 480 kts | 54° |
| 2026-04-30 08:16 | 40.40981 | 27.62356 | 35143 ft | 480 kts | 54° |
| 2026-04-30 08:16 | 40.44555 | 27.69760 | 35144 ft | 480 kts | 54° |
| 2026-04-30 08:17 | 40.48131 | 27.77176 | 35138 ft | 480 kts | 54° |
| 2026-04-30 08:17 | 40.51704 | 27.84598 | 35139 ft | 481 kts | 54° |
| 2026-04-30 08:18 | 40.55273 | 27.92032 | 35152 ft | 481 kts | 54° |
| 2026-04-30 08:18 | 40.58835 | 27.99474 | 35150 ft | 481 kts | 54° |
| 2026-04-30 08:19 | 40.62390 | 28.06934 | 35148 ft | 481 kts | 55° |
| 2026-04-30 08:19 | 40.65942 | 28.14384 | 35155 ft | 481 kts | 54° |
| 2026-04-30 08:20 | 40.69495 | 28.21855 | 35149 ft | 481 kts | 55° |
| 2026-04-30 08:20 | 40.73039 | 28.29338 | 35142 ft | 481 kts | 55° |
| 2026-04-30 08:21 | 40.76554 | 28.36771 | 35139 ft | 481 kts | 55° |
| 2026-04-30 08:21 | 40.80090 | 28.44276 | 35144 ft | 482 kts | 55° |
| 2026-04-30 08:22 | 40.83631 | 28.51786 | 35137 ft | 482 kts | 55° |
| 2026-04-30 08:22 | 40.87166 | 28.59302 | 35134 ft | 482 kts | 55° |
| 2026-04-30 08:23 | 40.90692 | 28.66842 | 35147 ft | 482 kts | 55° |
| 2026-04-30 08:23 | 40.94220 | 28.74397 | 35146 ft | 482 kts | 55° |
| 2026-04-30 08:24 | 40.97751 | 28.81968 | 35140 ft | 483 kts | 55° |
| 2026-04-30 08:24 | 41.01270 | 28.89545 | 35136 ft | 483 kts | 55° |
| 2026-04-30 08:25 | 41.04783 | 28.97130 | 35129 ft | 483 kts | 56° |
| 2026-04-30 08:25 | 41.08361 | 29.04610 | 35092 ft | 479 kts | 49° |
| 2026-04-30 08:25 | 41.10577 | 29.07859 | 34600 ft | 472 kts | 37° |
| 2026-04-30 08:26 | 41.13157 | 29.10467 | 34234 ft | 461 kts | 26° |
| 2026-04-30 08:26 | 41.15986 | 29.12416 | 34102 ft | 455 kts | 16° |
| 2026-04-30 08:26 | 41.18982 | 29.13714 | 34153 ft | 451 kts | 7° |
| 2026-04-30 08:27 | 41.25134 | 29.14446 | 34155 ft | 442 kts | 354° |
| 2026-04-30 08:27 | 41.31290 | 29.14504 | 34160 ft | 442 kts | 354° |
| 2026-04-30 08:28 | 41.37457 | 29.14566 | 34161 ft | 443 kts | 354° |
| 2026-04-30 08:28 | 41.43590 | 29.14633 | 34164 ft | 443 kts | 354° |
| 2026-04-30 08:29 | 41.49754 | 29.14680 | 34167 ft | 443 kts | 354° |
| 2026-04-30 08:29 | 41.55917 | 29.14648 | 34186 ft | 442 kts | 353° |
| 2026-04-30 08:30 | 41.62074 | 29.14587 | 34181 ft | 442 kts | 353° |
| 2026-04-30 08:30 | 41.68231 | 29.14543 | 34183 ft | 443 kts | 353° |
| 2026-04-30 08:31 | 41.74388 | 29.14509 | 34207 ft | 442 kts | 353° |
| 2026-04-30 08:31 | 41.80543 | 29.14474 | 34200 ft | 442 kts | 353° |
| 2026-04-30 08:32 | 41.86697 | 29.14436 | 34201 ft | 442 kts | 353° |
| 2026-04-30 08:32 | 41.92848 | 29.14406 | 34213 ft | 442 kts | 353° |
| 2026-04-30 08:33 | 41.98997 | 29.14376 | 34211 ft | 442 kts | 353° |
| 2026-04-30 08:33 | 42.05107 | 29.14351 | 34219 ft | 442 kts | 353° |
| 2026-04-30 08:34 | 42.11249 | 29.14326 | 34225 ft | 442 kts | 352° |
| 2026-04-30 08:34 | 42.17397 | 29.14282 | 34221 ft | 441 kts | 352° |
| 2026-04-30 08:35 | 42.23545 | 29.14255 | 34213 ft | 442 kts | 353° |
| 2026-04-30 08:35 | 42.29702 | 29.14278 | 34234 ft | 442 kts | 353° |
| 2026-04-30 08:36 | 42.35849 | 29.14297 | 34221 ft | 442 kts | 352° |
| 2026-04-30 08:36 | 42.42002 | 29.14299 | 34242 ft | 442 kts | 352° |
| 2026-04-30 08:37 | 42.48147 | 29.14301 | 34228 ft | 441 kts | 352° |
| 2026-04-30 08:37 | 42.54292 | 29.14295 | 34245 ft | 441 kts | 352° |
| 2026-04-30 08:38 | 42.60387 | 29.14293 | 34228 ft | 441 kts | 351° |
| 2026-04-30 08:38 | 42.66525 | 29.14292 | 34226 ft | 441 kts | 352° |
| 2026-04-30 08:39 | 42.72665 | 29.14294 | 34238 ft | 441 kts | 351° |
| 2026-04-30 08:39 | 42.78808 | 29.14296 | 34227 ft | 441 kts | 351° |
| 2026-04-30 08:40 | 42.84955 | 29.14307 | 34217 ft | 441 kts | 351° |
| 2026-04-30 08:40 | 42.91092 | 29.14301 | 34218 ft | 441 kts | 351° |
| 2026-04-30 08:41 | 42.97205 | 29.14297 | 34219 ft | 441 kts | 351° |
| 2026-04-30 08:41 | 43.03352 | 29.14301 | 34218 ft | 441 kts | 351° |
| 2026-04-30 08:42 | 43.09493 | 29.14311 | 34231 ft | 441 kts | 351° |
| 2026-04-30 08:42 | 43.15638 | 29.14310 | 34236 ft | 442 kts | 351° |
| 2026-04-30 08:43 | 43.21783 | 29.14313 | 34228 ft | 442 kts | 351° |
| 2026-04-30 08:43 | 43.27941 | 29.14315 | 34231 ft | 442 kts | 351° |
| 2026-04-30 08:44 | 43.34091 | 29.14321 | 34240 ft | 442 kts | 351° |
| 2026-04-30 08:44 | 43.40244 | 29.14320 | 34240 ft | 442 kts | 350° |
| 2026-04-30 08:45 | 43.46400 | 29.14317 | 34242 ft | 442 kts | 350° |
| 2026-04-30 08:45 | 43.52525 | 29.14319 | 34268 ft | 442 kts | 350° |
| 2026-04-30 08:46 | 43.58684 | 29.14328 | 34256 ft | 442 kts | 350° |
| 2026-04-30 08:46 | 43.64841 | 29.14326 | 34247 ft | 443 kts | 350° |
| 2026-04-30 08:47 | 43.70968 | 29.14128 | 34240 ft | 433 kts | 342° |
| 2026-04-30 08:47 | 43.73885 | 29.13342 | 34275 ft | 421 kts | 333° |
| 2026-04-30 08:47 | 43.76612 | 29.12016 | 34259 ft | 411 kts | 326° |
| 2026-04-30 08:48 | 43.81680 | 29.08513 | 34260 ft | 407 kts | 323° |
| 2026-04-30 08:48 | 43.86751 | 29.04989 | 34257 ft | 408 kts | 323° |
| 2026-04-30 08:49 | 43.91834 | 29.01463 | 34255 ft | 408 kts | 323° |
| 2026-04-30 08:49 | 43.96912 | 28.97924 | 34243 ft | 408 kts | 323° |
| 2026-04-30 08:50 | 44.01982 | 28.94370 | 34257 ft | 408 kts | 323° |
| 2026-04-30 08:50 | 44.07020 | 28.90833 | 34264 ft | 409 kts | 323° |
| 2026-04-30 08:51 | 44.12106 | 28.87248 | 34249 ft | 410 kts | 323° |
| 2026-04-30 08:51 | 44.17200 | 28.83662 | 34245 ft | 411 kts | 323° |
| 2026-04-30 08:52 | 44.22306 | 28.80059 | 34242 ft | 411 kts | 322° |
| 2026-04-30 08:52 | 44.27413 | 28.76443 | 34262 ft | 412 kts | 323° |
| 2026-04-30 08:53 | 44.32525 | 28.72825 | 34272 ft | 413 kts | 323° |
| 2026-04-30 08:53 | 44.37659 | 28.69196 | 34265 ft | 413 kts | 323° |
| 2026-04-30 08:54 | 44.42759 | 28.65573 | 34262 ft | 413 kts | 323° |
| 2026-04-30 08:54 | 44.47885 | 28.61916 | 34259 ft | 414 kts | 323° |
| 2026-04-30 08:55 | 44.53019 | 28.58252 | 34298 ft | 414 kts | 324° |
| 2026-04-30 08:55 | 44.58153 | 28.54583 | 34272 ft | 414 kts | 324° |
| 2026-04-30 08:56 | 44.63292 | 28.50903 | 34267 ft | 415 kts | 324° |
| 2026-04-30 08:56 | 44.68436 | 28.47208 | 34264 ft | 415 kts | 324° |
| 2026-04-30 08:57 | 44.73572 | 28.43510 | 34264 ft | 415 kts | 324° |
| 2026-04-30 08:57 | 44.78715 | 28.39796 | 34300 ft | 415 kts | 324° |
| 2026-04-30 08:58 | 44.83750 | 28.36154 | 34278 ft | 416 kts | 324° |
| 2026-04-30 08:58 | 44.88907 | 28.32421 | 34277 ft | 417 kts | 324° |
| 2026-04-30 08:59 | 44.94070 | 28.28678 | 34274 ft | 417 kts | 324° |
| 2026-04-30 08:59 | 44.99241 | 28.24925 | 34281 ft | 418 kts | 324° |
| 2026-04-30 09:00 | 45.04408 | 28.21154 | 34310 ft | 419 kts | 325° |
| 2026-04-30 09:00 | 45.09598 | 28.17358 | 34294 ft | 420 kts | 325° |
| 2026-04-30 09:01 | 45.14798 | 28.13548 | 34291 ft | 421 kts | 325° |
| 2026-04-30 09:01 | 45.19967 | 28.09754 | 34289 ft | 421 kts | 325° |
| 2026-04-30 09:02 | 45.27784 | 28.04006 | 34303 ft | 422 kts | 326° |
| 2026-04-30 09:02 | 45.33005 | 28.00155 | 34295 ft | 423 kts | 326° |
| 2026-04-30 09:03 | 45.38236 | 27.96296 | 34293 ft | 424 kts | 326° |
| 2026-04-30 09:03 | 45.43481 | 27.92426 | 34302 ft | 424 kts | 326° |
| 2026-04-30 09:04 | 45.47835 | 27.89193 | 34304 ft | 424 kts | 325° |
| 2026-04-30 09:04 | 45.53087 | 27.85292 | 34310 ft | 424 kts | 325° |
| 2026-04-30 09:05 | 45.58323 | 27.81388 | 34345 ft | 424 kts | 326° |
| 2026-04-30 09:05 | 45.63520 | 27.77507 | 34337 ft | 424 kts | 326° |
| 2026-04-30 09:06 | 45.68759 | 27.73590 | 34337 ft | 424 kts | 326° |
| 2026-04-30 09:06 | 45.73996 | 27.69675 | 34354 ft | 424 kts | 326° |
| 2026-04-30 09:07 | 45.79225 | 27.65757 | 34348 ft | 423 kts | 326° |
| 2026-04-30 09:07 | 45.84439 | 27.61829 | 34354 ft | 423 kts | 326° |
| 2026-04-30 09:08 | 45.89643 | 27.57900 | 34356 ft | 423 kts | 326° |
| 2026-04-30 09:08 | 45.94819 | 27.53992 | 34352 ft | 422 kts | 326° |
| 2026-04-30 09:09 | 46.00015 | 27.50055 | 34353 ft | 422 kts | 326° |
| 2026-04-30 09:09 | 46.05208 | 27.46116 | 34344 ft | 422 kts | 326° |
| 2026-04-30 09:10 | 46.10401 | 27.42170 | 34337 ft | 422 kts | 326° |
| 2026-04-30 09:10 | 46.15596 | 27.38211 | 34363 ft | 422 kts | 326° |
| 2026-04-30 09:11 | 46.20787 | 27.34245 | 34343 ft | 422 kts | 326° |
| 2026-04-30 09:11 | 46.25980 | 27.30261 | 34340 ft | 423 kts | 327° |
| 2026-04-30 09:12 | 46.31177 | 27.26273 | 34327 ft | 423 kts | 327° |
| 2026-04-30 09:12 | 46.36354 | 27.22298 | 34327 ft | 424 kts | 327° |
| 2026-04-30 09:13 | 46.41571 | 27.18281 | 34362 ft | 424 kts | 327° |
| 2026-04-30 09:13 | 46.46787 | 27.14256 | 34357 ft | 425 kts | 327° |
| 2026-04-30 09:14 | 46.52011 | 27.10219 | 34360 ft | 425 kts | 327° |
| 2026-04-30 09:14 | 46.57229 | 27.06165 | 34354 ft | 425 kts | 327° |
| 2026-04-30 09:15 | 46.62453 | 27.02102 | 34351 ft | 426 kts | 327° |
| 2026-04-30 09:15 | 46.67660 | 26.98056 | 34350 ft | 426 kts | 327° |
| 2026-04-30 09:16 | 46.72880 | 26.93986 | 34363 ft | 426 kts | 328° |
| 2026-04-30 09:16 | 46.78109 | 26.89890 | 34353 ft | 426 kts | 328° |
| 2026-04-30 09:17 | 46.83299 | 26.85824 | 34351 ft | 426 kts | 328° |
| 2026-04-30 09:17 | 46.88535 | 26.81712 | 34347 ft | 426 kts | 328° |
| 2026-04-30 09:18 | 46.93756 | 26.77596 | 34349 ft | 426 kts | 328° |
| 2026-04-30 09:18 | 46.98971 | 26.73473 | 34371 ft | 426 kts | 328° |
| 2026-04-30 09:19 | 47.04181 | 26.69348 | 34363 ft | 427 kts | 328° |
| 2026-04-30 09:19 | 47.09410 | 26.65202 | 34358 ft | 427 kts | 328° |
| 2026-04-30 09:20 | 47.14638 | 26.61046 | 34361 ft | 427 kts | 328° |
| 2026-04-30 09:20 | 47.19859 | 26.56888 | 34360 ft | 427 kts | 328° |
| 2026-04-30 09:21 | 47.25079 | 26.52712 | 34361 ft | 427 kts | 329° |
| 2026-04-30 09:21 | 47.30267 | 26.48564 | 34376 ft | 427 kts | 329° |
| 2026-04-30 09:22 | 47.35491 | 26.44377 | 34372 ft | 427 kts | 329° |
| 2026-04-30 09:22 | 47.40712 | 26.40180 | 34369 ft | 427 kts | 329° |
| 2026-04-30 09:23 | 47.45936 | 26.35975 | 34364 ft | 427 kts | 329° |
| 2026-04-30 09:23 | 47.51183 | 26.31739 | 34360 ft | 427 kts | 329° |
| 2026-04-30 09:24 | 47.56380 | 26.27531 | 34380 ft | 427 kts | 330° |
| 2026-04-30 09:24 | 47.61608 | 26.23287 | 34385 ft | 427 kts | 330° |
| 2026-04-30 09:25 | 47.66823 | 26.19045 | 34384 ft | 427 kts | 330° |
| 2026-04-30 09:25 | 47.72023 | 26.14808 | 34382 ft | 427 kts | 330° |
| 2026-04-30 09:26 | 47.77196 | 26.10592 | 34379 ft | 426 kts | 330° |
| 2026-04-30 09:26 | 47.82396 | 26.06342 | 34435 ft | 428 kts | 330° |
| 2026-04-30 09:27 | 47.85004 | 26.04199 | 34624 ft | 429 kts | 330° |
| 2026-04-30 09:27 | 47.87623 | 26.02044 | 34801 ft | 431 kts | 330° |
| 2026-04-30 09:27 | 47.90248 | 25.99885 | 34992 ft | 431 kts | 330° |
| 2026-04-30 09:27 | 47.92890 | 25.97771 | 35197 ft | 432 kts | 334° |
| 2026-04-30 09:28 | 47.95703 | 25.96189 | 35400 ft | 434 kts | 343° |
| 2026-04-30 09:28 | 47.98676 | 25.95327 | 35596 ft | 436 kts | 353° |
| 2026-04-30 09:28 | 48.01705 | 25.94926 | 35796 ft | 436 kts | 353° |
| 2026-04-30 09:28 | 48.04730 | 25.94528 | 35989 ft | 436 kts | 353° |
| 2026-04-30 09:29 | 48.07753 | 25.94121 | 36183 ft | 437 kts | 353° |
| 2026-04-30 09:29 | 48.10752 | 25.93708 | 36343 ft | 437 kts | 353° |
| 2026-04-30 09:29 | 48.16821 | 25.92862 | 36378 ft | 437 kts | 353° |
| 2026-04-30 09:30 | 48.22884 | 25.92025 | 36382 ft | 437 kts | 353° |
| 2026-04-30 09:30 | 48.28946 | 25.91193 | 36385 ft | 437 kts | 353° |
| 2026-04-30 09:31 | 48.35005 | 25.90355 | 36392 ft | 437 kts | 353° |
| 2026-04-30 09:31 | 48.41075 | 25.89520 | 36379 ft | 438 kts | 353° |
| 2026-04-30 09:32 | 48.47151 | 25.88679 | 36383 ft | 439 kts | 353° |
| 2026-04-30 09:32 | 48.53192 | 25.87851 | 36400 ft | 438 kts | 353° |
| 2026-04-30 09:33 | 48.59266 | 25.87010 | 36400 ft | 438 kts | 353° |
| 2026-04-30 09:33 | 48.65332 | 25.86156 | 36419 ft | 437 kts | 353° |
| 2026-04-30 09:34 | 48.71383 | 25.85302 | 36416 ft | 436 kts | 354° |
| 2026-04-30 09:34 | 48.77416 | 25.84454 | 36412 ft | 435 kts | 354° |
| 2026-04-30 09:35 | 48.83447 | 25.83601 | 36412 ft | 435 kts | 353° |
| 2026-04-30 09:35 | 48.89465 | 25.82753 | 36414 ft | 434 kts | 354° |
| 2026-04-30 09:36 | 48.95468 | 25.81903 | 36416 ft | 433 kts | 354° |
| 2026-04-30 09:36 | 49.01463 | 25.81061 | 36417 ft | 432 kts | 354° |
| 2026-04-30 09:37 | 49.07445 | 25.80214 | 36417 ft | 431 kts | 354° |
| 2026-04-30 09:37 | 49.13419 | 25.79366 | 36420 ft | 431 kts | 354° |
| 2026-04-30 09:38 | 49.19360 | 25.78518 | 36413 ft | 431 kts | 354° |
| 2026-04-30 09:38 | 49.25340 | 25.77660 | 36411 ft | 431 kts | 354° |
| 2026-04-30 09:39 | 49.31322 | 25.76794 | 36408 ft | 431 kts | 354° |
| 2026-04-30 09:39 | 49.37304 | 25.75929 | 36403 ft | 431 kts | 355° |
| 2026-04-30 09:40 | 49.43270 | 25.75064 | 36423 ft | 430 kts | 355° |
| 2026-04-30 09:40 | 49.49235 | 25.74201 | 36418 ft | 430 kts | 355° |
| 2026-04-30 09:41 | 49.55188 | 25.73351 | 36420 ft | 430 kts | 355° |
| 2026-04-30 09:41 | 49.61140 | 25.72497 | 36433 ft | 429 kts | 355° |
| 2026-04-30 09:42 | 49.67057 | 25.71630 | 36426 ft | 429 kts | 355° |
| 2026-04-30 09:42 | 49.73001 | 25.70758 | 36427 ft | 429 kts | 355° |
| 2026-04-30 09:43 | 49.78946 | 25.69890 | 36403 ft | 429 kts | 355° |
| 2026-04-30 09:43 | 49.84882 | 25.69021 | 36430 ft | 428 kts | 355° |
| 2026-04-30 09:44 | 49.90800 | 25.68150 | 36439 ft | 426 kts | 355° |
| 2026-04-30 09:44 | 49.96702 | 25.67278 | 36436 ft | 425 kts | 355° |
| 2026-04-30 09:45 | 50.02584 | 25.66400 | 36436 ft | 424 kts | 355° |
| 2026-04-30 09:45 | 50.08418 | 25.65539 | 36430 ft | 423 kts | 355° |
| 2026-04-30 09:46 | 50.14281 | 25.64678 | 36431 ft | 423 kts | 355° |
| 2026-04-30 09:46 | 50.20142 | 25.63807 | 36433 ft | 422 kts | 355° |
| 2026-04-30 09:47 | 50.25996 | 25.62939 | 36404 ft | 422 kts | 355° |
| 2026-04-30 09:47 | 50.31843 | 25.62062 | 36415 ft | 421 kts | 355° |
| 2026-04-30 09:48 | 50.37680 | 25.61173 | 36441 ft | 421 kts | 355° |
| 2026-04-30 09:48 | 50.43479 | 25.60296 | 36432 ft | 421 kts | 355° |
| 2026-04-30 09:49 | 50.49346 | 25.59420 | 36431 ft | 421 kts | 355° |
| 2026-04-30 09:49 | 50.55174 | 25.58550 | 36430 ft | 421 kts | 355° |
| 2026-04-30 09:50 | 50.60972 | 25.57671 | 36420 ft | 421 kts | 355° |
| 2026-04-30 09:50 | 50.66802 | 25.56788 | 36416 ft | 421 kts | 355° |
| 2026-04-30 09:51 | 50.72630 | 25.55903 | 36416 ft | 420 kts | 355° |
| 2026-04-30 09:51 | 50.77476 | 25.55167 | 36425 ft | 420 kts | 355° |
| 2026-04-30 09:52 | 50.83296 | 25.54283 | 36425 ft | 420 kts | 355° |
| 2026-04-30 09:52 | 50.89104 | 25.53389 | 36432 ft | 419 kts | 355° |
| 2026-04-30 09:53 | 50.95855 | 25.52332 | 36426 ft | 419 kts | 356° |
| 2026-04-30 09:53 | 51.00719 | 25.51584 | 36421 ft | 419 kts | 356° |
| 2026-04-30 09:54 | 51.06528 | 25.50695 | 36421 ft | 419 kts | 356° |
| 2026-04-30 09:54 | 51.12342 | 25.49805 | 36420 ft | 419 kts | 356° |
| 2026-04-30 09:55 | 51.18145 | 25.48910 | 36410 ft | 419 kts | 356° |
| 2026-04-30 09:55 | 51.23909 | 25.48006 | 36417 ft | 418 kts | 356° |
| 2026-04-30 09:56 | 51.29702 | 25.47092 | 36420 ft | 418 kts | 356° |
| 2026-04-30 09:56 | 51.35496 | 25.46175 | 36418 ft | 418 kts | 356° |
| 2026-04-30 09:57 | 51.41279 | 25.45272 | 36416 ft | 418 kts | 356° |
| 2026-04-30 09:57 | 51.47070 | 25.44363 | 36422 ft | 417 kts | 356° |
| 2026-04-30 09:58 | 51.52848 | 25.43463 | 36421 ft | 417 kts | 356° |
| 2026-04-30 09:58 | 51.58626 | 25.42542 | 36421 ft | 417 kts | 356° |
| 2026-04-30 09:59 | 51.70176 | 25.40703 | 36418 ft | 417 kts | 356° |
| 2026-04-30 10:00 | 51.78835 | 25.39332 | 36425 ft | 416 kts | 356° |
| 2026-04-30 10:01 | 51.87446 | 25.37957 | 36425 ft | 416 kts | 356° |
| 2026-04-30 10:02 | 51.96102 | 25.36674 | 36426 ft | 415 kts | 358° |
| 2026-04-30 10:02 | 52.01872 | 25.36279 | 36434 ft | 415 kts | 0° |
| 2026-04-30 10:03 | 52.07639 | 25.35982 | 36432 ft | 414 kts | 360° |
| 2026-04-30 10:03 | 52.13396 | 25.35613 | 36403 ft | 414 kts | 359° |
| 2026-04-30 10:04 | 52.19151 | 25.35179 | 36407 ft | 413 kts | 359° |
| 2026-04-30 10:04 | 52.24856 | 25.34737 | 36418 ft | 413 kts | 359° |
| 2026-04-30 10:05 | 52.30592 | 25.34311 | 36417 ft | 412 kts | 359° |
| 2026-04-30 10:05 | 52.36317 | 25.33899 | 36413 ft | 412 kts | 359° |
| 2026-04-30 10:06 | 52.42046 | 25.33469 | 36410 ft | 412 kts | 359° |
| 2026-04-30 10:06 | 52.47765 | 25.33038 | 36405 ft | 411 kts | 359° |
| 2026-04-30 10:07 | 52.53487 | 25.32611 | 36409 ft | 411 kts | 359° |
| 2026-04-30 10:07 | 52.59207 | 25.32182 | 36405 ft | 411 kts | 359° |
| 2026-04-30 10:08 | 52.64926 | 25.31756 | 36398 ft | 411 kts | 359° |
| 2026-04-30 10:08 | 52.70639 | 25.31325 | 36396 ft | 411 kts | 359° |
| 2026-04-30 10:09 | 52.76313 | 25.30899 | 36395 ft | 411 kts | 359° |
| 2026-04-30 10:09 | 52.82022 | 25.30472 | 36398 ft | 410 kts | 359° |
| 2026-04-30 10:10 | 52.87721 | 25.30041 | 36394 ft | 410 kts | 359° |
| 2026-04-30 10:10 | 52.93421 | 25.29606 | 36391 ft | 410 kts | 359° |
| 2026-04-30 10:11 | 52.99115 | 25.29161 | 36389 ft | 410 kts | 359° |
| 2026-04-30 10:11 | 53.04814 | 25.28728 | 36389 ft | 410 kts | 359° |
| 2026-04-30 10:12 | 53.10512 | 25.28296 | 36389 ft | 409 kts | 359° |
| 2026-04-30 10:12 | 53.16206 | 25.27853 | 36365 ft | 409 kts | 359° |
| 2026-04-30 10:13 | 53.21887 | 25.27414 | 36372 ft | 409 kts | 359° |
| 2026-04-30 10:13 | 53.27543 | 25.26979 | 36376 ft | 408 kts | 359° |
| 2026-04-30 10:14 | 53.33215 | 25.26542 | 36375 ft | 408 kts | 359° |
| 2026-04-30 10:14 | 53.41719 | 25.25885 | 36379 ft | 407 kts | 359° |
| 2026-04-30 10:15 | 53.47390 | 25.25438 | 36381 ft | 407 kts | 359° |
| 2026-04-30 10:15 | 53.53050 | 25.24992 | 36380 ft | 407 kts | 359° |
| 2026-04-30 10:16 | 53.58710 | 25.24546 | 36383 ft | 407 kts | 360° |
| 2026-04-30 10:17 | 53.67158 | 25.23889 | 36379 ft | 407 kts | 360° |
| 2026-04-30 10:17 | 53.75635 | 25.23220 | 36365 ft | 406 kts | 360° |
| 2026-04-30 10:18 | 53.81280 | 25.22776 | 36376 ft | 406 kts | 360° |
| 2026-04-30 10:19 | 53.89738 | 25.22103 | 36381 ft | 406 kts | 360° |
| 2026-04-30 10:19 | 53.95379 | 25.21647 | 36381 ft | 405 kts | 360° |
| 2026-04-30 10:20 | 54.01010 | 25.21201 | 36382 ft | 405 kts | 360° |
| 2026-04-30 10:20 | 54.09457 | 25.20538 | 36382 ft | 405 kts | 360° |
| 2026-04-30 10:21 | 54.15085 | 25.20088 | 36382 ft | 405 kts | 360° |
| 2026-04-30 10:21 | 54.20713 | 25.19633 | 36389 ft | 405 kts | 360° |
| 2026-04-30 10:22 | 54.26339 | 25.19349 | 36377 ft | 404 kts | 2° |
| 2026-04-30 10:22 | 54.31945 | 25.19312 | 36388 ft | 402 kts | 2° |
| 2026-04-30 10:23 | 54.37541 | 25.19284 | 36394 ft | 402 kts | 2° |
| 2026-04-30 10:23 | 54.43132 | 25.19194 | 36395 ft | 401 kts | 2° |
| 2026-04-30 10:24 | 54.48675 | 25.19077 | 36403 ft | 401 kts | 2° |
| 2026-04-30 10:24 | 54.54262 | 25.18970 | 36402 ft | 401 kts | 2° |
| 2026-04-30 10:25 | 54.59839 | 25.18868 | 36400 ft | 401 kts | 2° |
| 2026-04-30 10:25 | 54.65417 | 25.18770 | 36399 ft | 401 kts | 2° |
| 2026-04-30 10:26 | 54.70992 | 25.18672 | 36370 ft | 400 kts | 2° |
| 2026-04-30 10:26 | 54.76561 | 25.18564 | 36375 ft | 400 kts | 2° |
| 2026-04-30 10:27 | 54.82127 | 25.18453 | 36344 ft | 400 kts | 2° |
| 2026-04-30 10:27 | 54.87676 | 25.18349 | 36384 ft | 398 kts | 2° |
| 2026-04-30 10:28 | 54.93205 | 25.18257 | 36391 ft | 397 kts | 2° |
| 2026-04-30 10:28 | 54.98723 | 25.18161 | 36392 ft | 396 kts | 2° |
| 2026-04-30 10:29 | 55.04236 | 25.18058 | 36396 ft | 396 kts | 2° |
| 2026-04-30 10:29 | 55.09700 | 25.17944 | 36392 ft | 395 kts | 2° |
| 2026-04-30 10:30 | 55.15191 | 25.17832 | 36392 ft | 394 kts | 2° |
| 2026-04-30 10:30 | 55.20683 | 25.17733 | 36393 ft | 394 kts | 2° |
| 2026-04-30 10:31 | 55.26174 | 25.17624 | 36388 ft | 394 kts | 2° |
| 2026-04-30 10:31 | 55.31665 | 25.17522 | 36395 ft | 395 kts | 2° |
| 2026-04-30 10:32 | 55.37156 | 25.17429 | 36396 ft | 394 kts | 2° |
| 2026-04-30 10:32 | 55.42642 | 25.17326 | 36352 ft | 394 kts | 2° |
| 2026-04-30 10:33 | 55.48079 | 25.17208 | 36375 ft | 392 kts | 2° |
| 2026-04-30 10:33 | 55.53536 | 25.17096 | 36383 ft | 391 kts | 2° |
| 2026-04-30 10:34 | 55.58976 | 25.16993 | 36388 ft | 390 kts | 2° |
| 2026-04-30 10:34 | 55.64403 | 25.16890 | 36387 ft | 390 kts | 2° |
| 2026-04-30 10:35 | 55.69824 | 25.16798 | 36386 ft | 389 kts | 2° |
| 2026-04-30 10:35 | 55.75239 | 25.16700 | 36382 ft | 389 kts | 2° |
| 2026-04-30 10:36 | 55.80646 | 25.16604 | 36374 ft | 389 kts | 2° |
| 2026-04-30 10:36 | 55.86055 | 25.16500 | 36372 ft | 388 kts | 2° |
| 2026-04-30 10:37 | 55.91424 | 25.16392 | 36372 ft | 388 kts | 2° |
| 2026-04-30 10:37 | 55.96830 | 25.16282 | 36371 ft | 388 kts | 2° |
| 2026-04-30 10:38 | 56.02231 | 25.16160 | 36331 ft | 388 kts | 2° |
| 2026-04-30 10:38 | 56.07612 | 25.16044 | 36370 ft | 386 kts | 2° |
| 2026-04-30 10:39 | 56.12975 | 25.15938 | 36375 ft | 384 kts | 3° |
| 2026-04-30 10:39 | 56.18316 | 25.15823 | 36371 ft | 383 kts | 2° |
| 2026-04-30 10:40 | 56.23649 | 25.15411 | 36367 ft | 384 kts | 0° |
| 2026-04-30 10:40 | 56.28077 | 25.14918 | 36362 ft | 383 kts | 0° |
| 2026-04-30 10:41 | 56.34263 | 25.14237 | 36360 ft | 383 kts | 0° |
| 2026-04-30 10:41 | 56.39587 | 25.13717 | 36360 ft | 383 kts | 1° |
| 2026-04-30 10:42 | 56.44039 | 25.13301 | 36361 ft | 383 kts | 1° |
| 2026-04-30 10:42 | 56.49359 | 25.12796 | 36366 ft | 383 kts | 0° |
| 2026-04-30 10:43 | 56.54686 | 25.12280 | 36364 ft | 383 kts | 0° |
| 2026-04-30 10:43 | 56.59973 | 25.11768 | 36306 ft | 383 kts | 1° |
| 2026-04-30 10:44 | 56.65280 | 25.11254 | 36340 ft | 381 kts | 1° |
| 2026-04-30 10:44 | 56.70570 | 25.10740 | 36348 ft | 379 kts | 1° |
| 2026-04-30 10:45 | 56.75831 | 25.10220 | 36345 ft | 378 kts | 1° |
| 2026-04-30 10:45 | 56.81083 | 25.09707 | 36356 ft | 378 kts | 1° |
| 2026-04-30 10:46 | 56.86337 | 25.09186 | 36346 ft | 378 kts | 1° |
| 2026-04-30 10:46 | 56.91587 | 25.08674 | 36345 ft | 377 kts | 1° |
| 2026-04-30 10:47 | 56.96830 | 25.08164 | 36346 ft | 377 kts | 1° |
| 2026-04-30 10:47 | 57.02070 | 25.07632 | 36344 ft | 377 kts | 0° |
| 2026-04-30 10:48 | 57.07317 | 25.07107 | 36339 ft | 377 kts | 0° |
| 2026-04-30 10:48 | 57.12555 | 25.06581 | 36339 ft | 377 kts | 0° |
| 2026-04-30 10:49 | 57.17755 | 25.06060 | 36295 ft | 376 kts | 1° |
| 2026-04-30 10:49 | 57.22963 | 25.05537 | 36336 ft | 374 kts | 0° |
| 2026-04-30 10:50 | 57.28153 | 25.05013 | 36343 ft | 372 kts | 1° |
| 2026-04-30 10:50 | 57.33320 | 25.04532 | 36341 ft | 371 kts | 1° |
| 2026-04-30 10:51 | 57.38482 | 25.04077 | 36350 ft | 370 kts | 1° |
| 2026-04-30 10:51 | 57.43589 | 25.03631 | 36336 ft | 369 kts | 1° |
| 2026-04-30 10:52 | 57.48721 | 25.03176 | 36335 ft | 369 kts | 1° |
| 2026-04-30 10:52 | 57.53854 | 25.02704 | 36328 ft | 369 kts | 1° |
| 2026-04-30 10:53 | 57.58978 | 25.02238 | 36325 ft | 369 kts | 1° |
| 2026-04-30 10:53 | 57.64106 | 25.01771 | 36323 ft | 369 kts | 1° |
| 2026-04-30 10:54 | 57.69229 | 25.01289 | 36325 ft | 368 kts | 0° |
| 2026-04-30 10:54 | 57.74352 | 25.00812 | 36326 ft | 368 kts | 0° |
| 2026-04-30 10:55 | 57.79445 | 25.00351 | 36281 ft | 364 kts | 1° |
| 2026-04-30 10:55 | 57.84467 | 24.99884 | 36299 ft | 363 kts | 1° |
| 2026-04-30 10:56 | 57.89507 | 24.99416 | 36306 ft | 362 kts | 1° |
| 2026-04-30 10:56 | 57.94529 | 24.98955 | 36303 ft | 361 kts | 1° |
| 2026-04-30 10:57 | 57.99548 | 24.98490 | 36310 ft | 361 kts | 0° |
| 2026-04-30 10:57 | 58.04555 | 24.97373 | 36305 ft | 363 kts | 356° |
| 2026-04-30 10:58 | 58.09558 | 24.95948 | 36295 ft | 363 kts | 356° |
| 2026-04-30 10:58 | 58.14553 | 24.94529 | 36294 ft | 363 kts | 356° |
| 2026-04-30 10:59 | 58.19545 | 24.93111 | 36288 ft | 363 kts | 356° |
| 2026-04-30 10:59 | 58.24524 | 24.91695 | 36277 ft | 363 kts | 356° |
| 2026-04-30 11:00 | 58.29518 | 24.90265 | 36282 ft | 363 kts | 356° |
| 2026-04-30 11:00 | 58.34510 | 24.88829 | 36282 ft | 363 kts | 355° |
| 2026-04-30 11:01 | 58.39507 | 24.87403 | 36278 ft | 363 kts | 355° |
| 2026-04-30 11:01 | 58.44496 | 24.85968 | 36273 ft | 363 kts | 355° |
| 2026-04-30 11:02 | 58.49496 | 24.84509 | 36272 ft | 363 kts | 355° |
| 2026-04-30 11:02 | 58.54487 | 24.83060 | 36268 ft | 363 kts | 355° |
| 2026-04-30 11:03 | 58.59160 | 24.81697 | 36265 ft | 363 kts | 355° |
| 2026-04-30 11:04 | 58.66583 | 24.79528 | 36276 ft | 363 kts | 355° |
| 2026-04-30 11:04 | 58.71575 | 24.78076 | 36269 ft | 363 kts | 355° |
| 2026-04-30 11:05 | 58.76565 | 24.76612 | 36260 ft | 363 kts | 355° |
| 2026-04-30 11:05 | 58.81551 | 24.75136 | 36258 ft | 363 kts | 355° |
| 2026-04-30 11:06 | 58.86500 | 24.73671 | 36214 ft | 362 kts | 355° |
| 2026-04-30 11:06 | 58.91474 | 24.72195 | 36228 ft | 361 kts | 355° |
| 2026-04-30 11:07 | 58.96448 | 24.70712 | 36241 ft | 361 kts | 355° |
| 2026-04-30 11:07 | 59.01417 | 24.69242 | 36242 ft | 361 kts | 355° |
| 2026-04-30 11:08 | 59.06389 | 24.67764 | 36244 ft | 361 kts | 355° |
| 2026-04-30 11:08 | 59.11361 | 24.66265 | 36242 ft | 361 kts | 355° |
| 2026-04-30 11:09 | 59.16327 | 24.64766 | 36242 ft | 361 kts | 355° |
| 2026-04-30 11:09 | 59.21264 | 24.63275 | 36242 ft | 361 kts | 355° |
| 2026-04-30 11:10 | 59.26229 | 24.61772 | 36237 ft | 361 kts | 355° |
| 2026-04-30 11:10 | 59.31197 | 24.60271 | 36238 ft | 361 kts | 355° |
| 2026-04-30 11:11 | 59.36161 | 24.58759 | 36215 ft | 361 kts | 355° |
| 2026-04-30 11:11 | 59.41139 | 24.57236 | 36229 ft | 362 kts | 355° |
| 2026-04-30 11:12 | 59.46126 | 24.55710 | 36231 ft | 362 kts | 355° |
| 2026-04-30 11:12 | 59.51106 | 24.54186 | 36232 ft | 362 kts | 355° |
| 2026-04-30 11:13 | 59.56084 | 24.52654 | 36232 ft | 362 kts | 355° |
| 2026-04-30 11:13 | 59.61060 | 24.51119 | 36231 ft | 362 kts | 355° |
| 2026-04-30 11:14 | 59.66035 | 24.49564 | 36251 ft | 362 kts | 355° |
| 2026-04-30 11:14 | 59.71009 | 24.48021 | 36239 ft | 362 kts | 355° |
| 2026-04-30 11:15 | 59.75975 | 24.46477 | 36228 ft | 361 kts | 355° |
| 2026-04-30 11:15 | 59.80953 | 24.45354 | 36223 ft | 358 kts | 4° |
| 2026-04-30 11:16 | 59.85915 | 24.45985 | 36217 ft | 357 kts | 5° |
| 2026-04-30 11:16 | 59.90844 | 24.46619 | 36174 ft | 357 kts | 5° |
| 2026-04-30 11:17 | 59.95842 | 24.47243 | 36199 ft | 358 kts | 4° |
| 2026-04-30 11:17 | 60.00777 | 24.47857 | 36198 ft | 358 kts | 4° |
| 2026-04-30 11:18 | 60.05749 | 24.48481 | 36196 ft | 358 kts | 5° |
| 2026-04-30 11:18 | 60.13204 | 24.49438 | 36189 ft | 358 kts | 5° |
| 2026-04-30 11:19 | 60.18178 | 24.50082 | 36191 ft | 358 kts | 5° |
| 2026-04-30 11:19 | 60.23147 | 24.50723 | 36190 ft | 358 kts | 5° |
| 2026-04-30 11:20 | 60.28120 | 24.51355 | 36210 ft | 358 kts | 4° |
| 2026-04-30 11:20 | 60.33100 | 24.51998 | 36206 ft | 358 kts | 4° |
| 2026-04-30 11:21 | 60.38067 | 24.52652 | 36198 ft | 358 kts | 4° |
| 2026-04-30 11:21 | 60.43035 | 24.53305 | 36195 ft | 358 kts | 4° |
| 2026-04-30 11:22 | 60.48008 | 24.53952 | 36199 ft | 358 kts | 4° |
| 2026-04-30 11:22 | 60.52976 | 24.54596 | 36191 ft | 358 kts | 4° |
| 2026-04-30 11:23 | 60.57910 | 24.55244 | 36204 ft | 358 kts | 4° |
| 2026-04-30 11:24 | 60.65392 | 24.56225 | 36191 ft | 358 kts | 4° |
| 2026-04-30 11:24 | 60.70330 | 24.56873 | 36133 ft | 358 kts | 4° |
| 2026-04-30 11:25 | 60.77787 | 24.57870 | 36170 ft | 358 kts | 4° |
| 2026-04-30 11:26 | 60.87735 | 24.59195 | 36203 ft | 358 kts | 4° |
| 2026-04-30 11:26 | 60.92710 | 24.59863 | 36197 ft | 358 kts | 4° |
| 2026-04-30 11:27 | 60.97682 | 24.60529 | 36191 ft | 358 kts | 4° |
| 2026-04-30 11:27 | 61.02648 | 24.61213 | 36185 ft | 358 kts | 4° |
| 2026-04-30 11:28 | 61.09266 | 24.62105 | 36183 ft | 358 kts | 4° |
| 2026-04-30 11:29 | 61.14234 | 24.62778 | 36178 ft | 358 kts | 4° |
| 2026-04-30 11:29 | 61.22494 | 24.63902 | 36196 ft | 358 kts | 3° |
| 2026-04-30 11:30 | 61.29142 | 24.64824 | 36182 ft | 358 kts | 3° |
| 2026-04-30 11:31 | 61.34113 | 24.65507 | 36182 ft | 358 kts | 3° |
| 2026-04-30 11:31 | 61.39051 | 24.66191 | 36178 ft | 358 kts | 3° |
| 2026-04-30 11:32 | 61.44027 | 24.66872 | 36176 ft | 358 kts | 3° |
| 2026-04-30 11:32 | 61.48996 | 24.67559 | 36175 ft | 358 kts | 3° |
| 2026-04-30 11:33 | 61.56450 | 24.68605 | 36148 ft | 358 kts | 3° |
| 2026-04-30 11:33 | 61.61428 | 24.69314 | 36152 ft | 358 kts | 3° |
| 2026-04-30 11:34 | 61.66416 | 24.70010 | 36152 ft | 359 kts | 3° |
| 2026-04-30 11:34 | 61.71368 | 24.70694 | 36154 ft | 359 kts | 3° |
| 2026-04-30 11:35 | 61.76352 | 24.71407 | 36154 ft | 359 kts | 3° |
| 2026-04-30 11:35 | 61.81336 | 24.72119 | 36157 ft | 359 kts | 3° |
| 2026-04-30 11:36 | 61.86317 | 24.72829 | 36177 ft | 359 kts | 3° |
| 2026-04-30 11:36 | 61.91303 | 24.73537 | 36176 ft | 359 kts | 3° |
| 2026-04-30 11:37 | 61.96255 | 24.74257 | 36172 ft | 359 kts | 3° |
| 2026-04-30 11:37 | 62.01271 | 24.74979 | 36166 ft | 359 kts | 3° |
| 2026-04-30 11:38 | 62.06218 | 24.75684 | 36165 ft | 359 kts | 3° |
| 2026-04-30 11:38 | 62.11202 | 24.76394 | 36164 ft | 359 kts | 3° |
| 2026-04-30 11:39 | 62.16184 | 24.77117 | 36185 ft | 359 kts | 2° |
| 2026-04-30 11:39 | 62.21168 | 24.77851 | 36176 ft | 359 kts | 2° |
| 2026-04-30 11:40 | 62.26155 | 24.78576 | 36171 ft | 359 kts | 2° |
| 2026-04-30 11:40 | 62.31142 | 24.79309 | 36160 ft | 359 kts | 2° |
| 2026-04-30 11:41 | 62.36134 | 24.80050 | 36125 ft | 359 kts | 2° |
| 2026-04-30 11:41 | 62.41137 | 24.80795 | 36132 ft | 360 kts | 2° |
| 2026-04-30 11:42 | 62.46103 | 24.81524 | 36134 ft | 360 kts | 2° |
| 2026-04-30 11:42 | 62.51139 | 24.82272 | 36147 ft | 360 kts | 2° |
| 2026-04-30 11:43 | 62.56113 | 24.83018 | 36146 ft | 361 kts | 2° |
| 2026-04-30 11:43 | 62.61120 | 24.83769 | 36149 ft | 361 kts | 2° |
| 2026-04-30 11:44 | 62.66128 | 24.84539 | 36150 ft | 361 kts | 2° |
| 2026-04-30 11:44 | 62.71135 | 24.85303 | 36153 ft | 361 kts | 2° |
| 2026-04-30 11:45 | 62.76145 | 24.86070 | 36156 ft | 361 kts | 2° |
| 2026-04-30 11:45 | 62.81156 | 24.86833 | 36173 ft | 361 kts | 2° |
| 2026-04-30 11:46 | 62.86165 | 24.87592 | 36175 ft | 361 kts | 2° |
| 2026-04-30 11:46 | 62.91176 | 24.88360 | 36165 ft | 361 kts | 2° |
| 2026-04-30 11:47 | 62.96188 | 24.89112 | 36161 ft | 361 kts | 2° |
| 2026-04-30 11:47 | 63.01202 | 24.89859 | 36160 ft | 361 kts | 2° |
| 2026-04-30 11:48 | 63.06209 | 24.90634 | 36149 ft | 361 kts | 2° |
| 2026-04-30 11:48 | 63.08721 | 24.91020 | 35900 ft | 361 kts | 2° |
| 2026-04-30 11:48 | 63.11220 | 24.91409 | 35680 ft | 359 kts | 2° |
| 2026-04-30 11:49 | 63.13706 | 24.91800 | 35434 ft | 357 kts | 2° |
| 2026-04-30 11:49 | 63.16179 | 24.92193 | 35170 ft | 356 kts | 1° |
| 2026-04-30 11:49 | 63.18652 | 24.92583 | 34913 ft | 356 kts | 1° |
| 2026-04-30 11:49 | 63.21120 | 24.92964 | 34645 ft | 355 kts | 1° |
| 2026-04-30 11:50 | 63.23582 | 24.93343 | 34012 ft | 355 kts | 1° |
| 2026-04-30 11:50 | 63.26016 | 24.93720 | 33349 ft | 354 kts | 1° |
| 2026-04-30 11:50 | 63.28444 | 24.94106 | 32976 ft | 346 kts | 1° |
| 2026-04-30 11:50 | 63.30856 | 24.94494 | 32535 ft | 340 kts | 1° |
| 2026-04-30 11:51 | 63.33171 | 24.94863 | 32112 ft | 335 kts | 1° |
| 2026-04-30 11:51 | 63.35484 | 24.95231 | 31685 ft | 330 kts | 1° |
| 2026-04-30 11:51 | 63.37755 | 24.95597 | 31288 ft | 325 kts | 1° |
| 2026-04-30 11:51 | 63.39986 | 24.95962 | 30886 ft | 319 kts | 0° |
| 2026-04-30 11:52 | 63.42191 | 24.96321 | 30495 ft | 314 kts | 0° |
| 2026-04-30 11:52 | 63.44359 | 24.96667 | 30105 ft | 310 kts | 0° |
| 2026-04-30 11:52 | 63.46493 | 24.97008 | 29675 ft | 304 kts | 0° |
| 2026-04-30 11:52 | 63.48582 | 24.97337 | 29311 ft | 298 kts | 0° |
| 2026-04-30 11:53 | 63.50645 | 24.97657 | 28946 ft | 297 kts | 0° |
| 2026-04-30 11:53 | 63.52701 | 24.97979 | 28585 ft | 296 kts | 0° |
| 2026-04-30 11:53 | 63.54750 | 24.98308 | 28221 ft | 295 kts | 0° |
| 2026-04-30 11:53 | 63.56792 | 24.98640 | 27861 ft | 294 kts | 0° |
| 2026-04-30 11:54 | 63.58797 | 24.98963 | 27507 ft | 293 kts | 0° |
| 2026-04-30 11:54 | 63.60827 | 24.99288 | 27163 ft | 292 kts | 0° |
| 2026-04-30 11:54 | 63.62847 | 24.99604 | 26822 ft | 291 kts | 1° |
| 2026-04-30 11:54 | 63.64866 | 24.99917 | 26470 ft | 290 kts | 1° |
| 2026-04-30 11:55 | 63.66881 | 25.00230 | 26136 ft | 289 kts | 1° |
| 2026-04-30 11:55 | 63.68884 | 25.00547 | 25808 ft | 288 kts | 1° |
| 2026-04-30 11:55 | 63.70883 | 25.00871 | 25472 ft | 288 kts | 1° |
| 2026-04-30 11:55 | 63.72879 | 25.01191 | 25149 ft | 287 kts | 1° |
| 2026-04-30 11:56 | 63.74869 | 25.01510 | 24821 ft | 286 kts | 1° |
| 2026-04-30 11:56 | 63.76853 | 25.01826 | 24520 ft | 285 kts | 1° |
| 2026-04-30 11:56 | 63.78826 | 25.02142 | 24177 ft | 284 kts | 1° |
| 2026-04-30 11:56 | 63.80793 | 25.02462 | 23845 ft | 283 kts | 1° |
| 2026-04-30 11:57 | 63.82758 | 25.02782 | 23498 ft | 282 kts | 1° |
| 2026-04-30 11:57 | 63.84713 | 25.03101 | 23152 ft | 281 kts | 1° |
| 2026-04-30 11:57 | 63.86664 | 25.03423 | 22823 ft | 281 kts | 1° |
| 2026-04-30 11:57 | 63.88608 | 25.03747 | 22494 ft | 280 kts | 1° |
| 2026-04-30 11:58 | 63.90546 | 25.04067 | 22169 ft | 279 kts | 1° |
| 2026-04-30 11:58 | 63.92482 | 25.04386 | 21760 ft | 279 kts | 1° |
| 2026-04-30 11:58 | 63.94412 | 25.04704 | 21375 ft | 277 kts | 1° |
| 2026-04-30 11:58 | 63.96330 | 25.05018 | 21032 ft | 275 kts | 1° |
| 2026-04-30 11:59 | 63.98236 | 25.05329 | 20693 ft | 275 kts | 1° |
| 2026-04-30 11:59 | 64.00121 | 25.05636 | 20343 ft | 277 kts | 0° |
| 2026-04-30 11:59 | 64.02046 | 25.05948 | 20020 ft | 278 kts | 0° |
| 2026-04-30 11:59 | 64.03976 | 25.06264 | 19680 ft | 277 kts | 0° |
| 2026-04-30 12:00 | 64.05900 | 25.06585 | 19338 ft | 277 kts | 0° |
| 2026-04-30 12:00 | 64.07814 | 25.06905 | 19000 ft | 276 kts | 0° |
| 2026-04-30 12:00 | 64.09727 | 25.07225 | 18686 ft | 275 kts | 0° |
| 2026-04-30 12:00 | 64.11631 | 25.07544 | 18306 ft | 273 kts | 0° |
| 2026-04-30 12:01 | 64.13518 | 25.07861 | 17941 ft | 271 kts | 0° |
| 2026-04-30 12:01 | 64.15396 | 25.08177 | 17610 ft | 270 kts | 0° |
| 2026-04-30 12:01 | 64.17269 | 25.08493 | 17296 ft | 269 kts | 0° |
| 2026-04-30 12:01 | 64.19136 | 25.08804 | 16971 ft | 269 kts | 0° |
| 2026-04-30 12:02 | 64.21001 | 25.09115 | 16645 ft | 268 kts | 0° |
| 2026-04-30 12:02 | 64.22859 | 25.09424 | 16320 ft | 267 kts | 0° |
| 2026-04-30 12:02 | 64.24712 | 25.09734 | 16003 ft | 267 kts | 0° |
| 2026-04-30 12:02 | 64.26559 | 25.10045 | 15684 ft | 266 kts | 1° |
| 2026-04-30 12:03 | 64.28405 | 25.10355 | 15363 ft | 266 kts | 1° |
| 2026-04-30 12:03 | 64.32058 | 25.10975 | 14728 ft | 264 kts | 1° |
| 2026-04-30 12:03 | 64.33887 | 25.11289 | 14410 ft | 264 kts | 1° |
| 2026-04-30 12:04 | 64.35718 | 25.11603 | 14082 ft | 263 kts | 1° |
| 2026-04-30 12:04 | 64.37543 | 25.11913 | 13736 ft | 263 kts | 1° |
| 2026-04-30 12:04 | 64.39369 | 25.12222 | 13403 ft | 263 kts | 1° |
| 2026-04-30 12:04 | 64.41193 | 25.12531 | 13037 ft | 262 kts | 1° |
| 2026-04-30 12:05 | 64.42994 | 25.13269 | 12686 ft | 265 kts | 12° |
| 2026-04-30 12:05 | 64.44700 | 25.14962 | 12294 ft | 270 kts | 25° |
| 2026-04-30 12:05 | 64.46299 | 25.17251 | 11913 ft | 270 kts | 26° |
| 2026-04-30 12:05 | 64.47897 | 25.19541 | 11531 ft | 270 kts | 26° |
| 2026-04-30 12:06 | 64.49494 | 25.21817 | 11142 ft | 269 kts | 26° |
| 2026-04-30 12:06 | 64.51092 | 25.24088 | 10759 ft | 269 kts | 26° |
| 2026-04-30 12:06 | 64.52692 | 25.26361 | 10382 ft | 269 kts | 26° |
| 2026-04-30 12:06 | 64.54279 | 25.28624 | 10229 ft | 268 kts | 26° |
| 2026-04-30 12:07 | 64.55875 | 25.30900 | 10138 ft | 270 kts | 27° |
| 2026-04-30 12:07 | 64.57477 | 25.33189 | 10016 ft | 270 kts | 27° |
| 2026-04-30 12:07 | 64.59059 | 25.35457 | 9835 ft | 263 kts | 27° |
| 2026-04-30 12:07 | 64.60609 | 25.37684 | 9466 ft | 262 kts | 27° |
| 2026-04-30 12:08 | 64.62142 | 25.39885 | 9004 ft | 264 kts | 27° |
| 2026-04-30 12:08 | 64.63705 | 25.42125 | 8506 ft | 262 kts | 27° |
| 2026-04-30 12:08 | 64.65235 | 25.44328 | 8127 ft | 254 kts | 27° |
| 2026-04-30 12:08 | 64.66717 | 25.46470 | 7768 ft | 246 kts | 27° |
| 2026-04-30 12:09 | 64.68150 | 25.48550 | 7431 ft | 239 kts | 27° |
| 2026-04-30 12:09 | 64.69545 | 25.50573 | 7121 ft | 234 kts | 27° |
| 2026-04-30 12:09 | 64.70916 | 25.52564 | 6767 ft | 230 kts | 27° |
| 2026-04-30 12:09 | 64.72265 | 25.54526 | 6428 ft | 227 kts | 27° |
| 2026-04-30 12:10 | 64.73577 | 25.56439 | 6125 ft | 216 kts | 27° |
| 2026-04-30 12:10 | 64.74809 | 25.58237 | 5806 ft | 202 kts | 27° |
| 2026-04-30 12:10 | 64.75965 | 25.59923 | 5519 ft | 190 kts | 27° |
| 2026-04-30 12:10 | 64.77061 | 25.61521 | 5256 ft | 181 kts | 27° |
| 2026-04-30 12:11 | 64.78124 | 25.63042 | 4991 ft | 177 kts | 26° |
| 2026-04-30 12:11 | 64.79178 | 25.64531 | 4711 ft | 176 kts | 26° |
| 2026-04-30 12:11 | 64.80211 | 25.65993 | 4446 ft | 176 kts | 26° |
| 2026-04-30 12:11 | 64.81260 | 25.67482 | 4178 ft | 176 kts | 26° |
| 2026-04-30 12:12 | 64.82339 | 25.68773 | 3909 ft | 172 kts | 12° |
| 2026-04-30 12:12 | 64.83509 | 25.68860 | 3653 ft | 169 kts | 347° |
| 2026-04-30 12:12 | 64.84563 | 25.67681 | 3393 ft | 170 kts | 322° |
| 2026-04-30 12:12 | 64.85296 | 25.65506 | 3139 ft | 172 kts | 303° |
| 2026-04-30 12:13 | 64.85911 | 25.63099 | 2872 ft | 170 kts | 304° |
| 2026-04-30 12:13 | 64.86511 | 25.60758 | 2610 ft | 164 kts | 304° |
| 2026-04-30 12:13 | 64.87083 | 25.58529 | 2380 ft | 155 kts | 303° |
| 2026-04-30 12:13 | 64.87621 | 25.56431 | 2168 ft | 142 kts | 304° |
| 2026-04-30 12:14 | 64.88122 | 25.54484 | 1941 ft | 136 kts | 304° |
| 2026-04-30 12:14 | 64.88609 | 25.52594 | 1736 ft | 134 kts | 304° |
| 2026-04-30 12:14 | 64.89092 | 25.50726 | 1513 ft | 133 kts | 304° |
| 2026-04-30 12:14 | 64.89570 | 25.48872 | 1307 ft | 132 kts | 303° |
| 2026-04-30 12:15 | 64.90047 | 25.47064 | 1080 ft | 131 kts | 303° |
| 2026-04-30 12:15 | 64.90536 | 25.45253 | 825 ft | 132 kts | 302° |
| 2026-04-30 12:15 | 64.91010 | 25.43416 | 595 ft | 132 kts | 301° |
| 2026-04-30 12:15 | 64.91467 | 25.41546 | 483 ft | 132 kts | 300° |
| 2026-04-30 12:16 | 64.91931 | 25.39696 | 317 ft | 130 kts | 300° |
| 2026-04-30 12:16 | 64.92390 | 25.37867 | 116 ft | 129 kts | 300° |
| 2026-04-30 12:16 | 64.92831 | 25.36128 | 55 ft | 113 kts | 301° |
| 2026-04-30 12:16 | 64.93158 | 25.34898 | 51 ft | 59 kts | 301° |
| 2026-04-30 12:17 | 64.93430 | 25.34061 | 52 ft | 19 kts | 345° |
| 2026-04-30 12:17 | 64.93514 | 25.34168 | 51 ft | 10 kts | 82° |
| 2026-04-30 12:17 | 64.93490 | 25.34316 | 50 ft | 9 kts | 118° |
| 2026-04-30 12:18 | 64.93458 | 25.34449 | 51 ft | 11 kts | 122° |
| 2026-04-30 12:18 | 64.93390 | 25.34706 | 51 ft | 24 kts | 121° |
| 2026-04-30 12:18 | 64.93305 | 25.35041 | 49 ft | 23 kts | 120° |
| 2026-04-30 12:18 | 64.93250 | 25.35264 | 49 ft | 23 kts | 120° |
| 2026-04-30 12:19 | 64.93133 | 25.35726 | 49 ft | 28 kts | 121° |
| 2026-04-30 12:19 | 64.93066 | 25.35986 | 51 ft | 27 kts | 121° |
| 2026-04-30 12:19 | 64.92972 | 25.36357 | 51 ft | 26 kts | 121° |
| 2026-04-30 12:19 | 64.92882 | 25.36708 | 51 ft | 25 kts | 121° |
| 2026-04-30 12:20 | 64.92795 | 25.37050 | 50 ft | 24 kts | 121° |
| 2026-04-30 12:20 | 64.92718 | 25.37355 | 51 ft | 15 kts | 120° |
| 2026-04-30 12:20 | 64.92731 | 25.37465 | 49 ft | 5 kts | 42° |
| 2026-04-30 12:20 | 64.92743 | 25.37514 | 51 ft | 3 kts | 60° |
| 2026-04-30 12:21 | 64.92752 | 25.37535 | 51 ft | 1 kts | 37° |
| 2026-04-30 12:21 | 64.92753 | 25.37536 | 51 ft | 0 kts | 37° |